sensor_id;sensor_type;location;lat;lon;timestamp;P1;durP1;ratioP1;P2;durP2;ratioP2
60312;SDS011;46158;52.850;6.970;2023-07-20T00:01:13;2.47;;;1.50;;
60312;SDS011;46158;52.850;6.970;2023-07-20T00:03:39;4.63;;;1.50;;
60312;SDS011;46158;52.850;6.970;2023-07-20T00:06:05;1.90;;;1.60;;
60312;SDS011;46158;52.850;6.970;2023-07-20T00:08:31;2.10;;;1.60;;
60312;SDS011;46158;52.850;6.970;2023-07-20T00:10:56;3.58;;;1.70;;
60312;SDS011;46158;52.850;6.970;2023-07-20T00:13:22;2.40;;;1.50;;
60312;SDS011;46158;52.850;6.970;2023-07-20T00:15:48;3.80;;;1.60;;
60312;SDS011;46158;52.850;6.970;2023-07-20T00:18:13;2.38;;;1.45;;
60312;SDS011;46158;52.850;6.970;2023-07-20T00:20:39;1.63;;;1.50;;
60312;SDS011;46158;52.850;6.970;2023-07-20T00:23:05;2.25;;;1.40;;
60312;SDS011;46158;52.850;6.970;2023-07-20T00:25:31;2.88;;;1.42;;
60312;SDS011;46158;52.850;6.970;2023-07-20T00:27:58;2.25;;;1.55;;
60312;SDS011;46158;52.850;6.970;2023-07-20T00:30:24;1.45;;;1.35;;
60312;SDS011;46158;52.850;6.970;2023-07-20T00:32:50;2.47;;;1.70;;
60312;SDS011;46158;52.850;6.970;2023-07-20T00:35:15;3.67;;;1.58;;
60312;SDS011;46158;52.850;6.970;2023-07-20T00:37:41;1.45;;;1.33;;
60312;SDS011;46158;52.850;6.970;2023-07-20T00:40:07;2.97;;;1.42;;
60312;SDS011;46158;52.850;6.970;2023-07-20T00:42:33;1.48;;;1.38;;
60312;SDS011;46158;52.850;6.970;2023-07-20T00:44:59;4.03;;;1.35;;
60312;SDS011;46158;52.850;6.970;2023-07-20T00:47:25;5.22;;;1.77;;
60312;SDS011;46158;52.850;6.970;2023-07-20T00:49:52;1.83;;;1.50;;
60312;SDS011;46158;52.850;6.970;2023-07-20T00:52:20;2.42;;;1.60;;
60312;SDS011;46158;52.850;6.970;2023-07-20T00:54:48;3.40;;;1.40;;
60312;SDS011;46158;52.850;6.970;2023-07-20T00:57:15;2.10;;;1.33;;
60312;SDS011;46158;52.850;6.970;2023-07-20T00:59:42;2.42;;;1.30;;
60312;SDS011;46158;52.850;6.970;2023-07-20T01:02:08;2.42;;;1.40;;
60312;SDS011;46158;52.850;6.970;2023-07-20T01:04:34;2.92;;;1.67;;
60312;SDS011;46158;52.850;6.970;2023-07-20T01:07:23;2.58;;;1.60;;
60312;SDS011;46158;52.850;6.970;2023-07-20T01:09:58;4.63;;;1.50;;
60312;SDS011;46158;52.850;6.970;2023-07-20T01:12:36;2.13;;;1.55;;
60312;SDS011;46158;52.850;6.970;2023-07-20T01:15:11;2.60;;;1.40;;
60312;SDS011;46158;52.850;6.970;2023-07-20T01:17:37;1.75;;;1.38;;
60312;SDS011;46158;52.850;6.970;2023-07-20T01:20:03;1.60;;;1.50;;
60312;SDS011;46158;52.850;6.970;2023-07-20T01:31:46;2.20;;;1.42;;
60312;SDS011;46158;52.850;6.970;2023-07-20T01:34:07;1.67;;;1.58;;
60312;SDS011;46158;52.850;6.970;2023-07-20T01:36:36;2.65;;;1.42;;
60312;SDS011;46158;52.850;6.970;2023-07-20T01:39:03;2.45;;;1.40;;
60312;SDS011;46158;52.850;6.970;2023-07-20T01:41:30;1.70;;;1.60;;
60312;SDS011;46158;52.850;6.970;2023-07-20T01:43:59;1.83;;;1.42;;
60312;SDS011;46158;52.850;6.970;2023-07-20T01:46:24;3.63;;;1.50;;
60312;SDS011;46158;52.850;6.970;2023-07-20T01:48:50;2.40;;;1.40;;
60312;SDS011;46158;52.850;6.970;2023-07-20T01:51:16;1.88;;;1.30;;
60312;SDS011;46158;52.850;6.970;2023-07-20T01:53:43;2.25;;;1.48;;
60312;SDS011;46158;52.850;6.970;2023-07-20T01:56:08;1.65;;;1.35;;
60312;SDS011;46158;52.850;6.970;2023-07-20T01:58:34;1.60;;;1.50;;
60312;SDS011;46158;52.850;6.970;2023-07-20T02:01:00;1.52;;;1.42;;
60312;SDS011;46158;52.850;6.970;2023-07-20T02:03:27;2.25;;;1.35;;
60312;SDS011;46158;52.850;6.970;2023-07-20T02:05:52;2.67;;;1.50;;
60312;SDS011;46158;52.850;6.970;2023-07-20T02:08:18;1.38;;;1.30;;
60312;SDS011;46158;52.850;6.970;2023-07-20T02:10:47;1.58;;;1.42;;
60312;SDS011;46158;52.850;6.970;2023-07-20T02:13:13;1.97;;;1.40;;
60312;SDS011;46158;52.850;6.970;2023-07-20T02:15:39;3.05;;;1.50;;
60312;SDS011;46158;52.850;6.970;2023-07-20T02:18:05;1.85;;;1.52;;
60312;SDS011;46158;52.850;6.970;2023-07-20T02:20:31;2.78;;;1.50;;
60312;SDS011;46158;52.850;6.970;2023-07-20T02:22:56;2.90;;;1.40;;
60312;SDS011;46158;52.850;6.970;2023-07-20T02:25:23;1.60;;;1.50;;
60312;SDS011;46158;52.850;6.970;2023-07-20T02:27:49;2.65;;;1.40;;
60312;SDS011;46158;52.850;6.970;2023-07-20T02:30:14;1.40;;;1.30;;
60312;SDS011;46158;52.850;6.970;2023-07-20T02:32:41;1.50;;;1.33;;
60312;SDS011;46158;52.850;6.970;2023-07-20T02:35:10;1.33;;;1.23;;
60312;SDS011;46158;52.850;6.970;2023-07-20T02:37:37;3.80;;;1.60;;
60312;SDS011;46158;52.850;6.970;2023-07-20T02:40:02;2.30;;;1.50;;
60312;SDS011;46158;52.850;6.970;2023-07-20T02:42:30;1.50;;;1.17;;
60312;SDS011;46158;52.850;6.970;2023-07-20T02:44:55;1.48;;;1.38;;
60312;SDS011;46158;52.850;6.970;2023-07-20T02:47:21;2.28;;;1.33;;
60312;SDS011;46158;52.850;6.970;2023-07-20T02:49:46;2.72;;;1.60;;
60312;SDS011;46158;52.850;6.970;2023-07-20T02:52:12;1.63;;;1.20;;
60312;SDS011;46158;52.850;6.970;2023-07-20T02:54:38;1.63;;;1.52;;
60312;SDS011;46158;52.850;6.970;2023-07-20T02:57:03;2.47;;;1.50;;
60312;SDS011;46158;52.850;6.970;2023-07-20T02:59:29;2.53;;;1.73;;
60312;SDS011;46158;52.850;6.970;2023-07-20T03:01:55;2.08;;;1.42;;
60312;SDS011;46158;52.850;6.970;2023-07-20T03:04:20;1.50;;;1.40;;
60312;SDS011;46158;52.850;6.970;2023-07-20T03:06:46;1.50;;;1.40;;
60312;SDS011;46158;52.850;6.970;2023-07-20T03:09:12;1.90;;;1.60;;
60312;SDS011;46158;52.850;6.970;2023-07-20T03:11:38;2.53;;;1.50;;
60312;SDS011;46158;52.850;6.970;2023-07-20T03:14:03;1.80;;;1.40;;
60312;SDS011;46158;52.850;6.970;2023-07-20T03:16:29;2.00;;;1.70;;
60312;SDS011;46158;52.850;6.970;2023-07-20T03:18:57;1.55;;;1.42;;
60312;SDS011;46158;52.850;6.970;2023-07-20T03:21:24;2.83;;;1.35;;
60312;SDS011;46158;52.850;6.970;2023-07-20T03:23:50;2.85;;;1.45;;
60312;SDS011;46158;52.850;6.970;2023-07-20T03:26:16;1.60;;;1.50;;
60312;SDS011;46158;52.850;6.970;2023-07-20T03:28:41;1.75;;;1.50;;
60312;SDS011;46158;52.850;6.970;2023-07-20T03:31:07;1.58;;;1.30;;
60312;SDS011;46158;52.850;6.970;2023-07-20T03:33:33;2.70;;;1.48;;
60312;SDS011;46158;52.850;6.970;2023-07-20T03:35:59;1.50;;;1.40;;
60312;SDS011;46158;52.850;6.970;2023-07-20T03:38:25;2.47;;;1.60;;
60312;SDS011;46158;52.850;6.970;2023-07-20T03:40:53;1.50;;;1.40;;
60312;SDS011;46158;52.850;6.970;2023-07-20T03:43:21;3.33;;;1.65;;
60312;SDS011;46158;52.850;6.970;2023-07-20T03:45:47;1.98;;;1.60;;
60312;SDS011;46158;52.850;6.970;2023-07-20T03:48:16;1.85;;;1.35;;
60312;SDS011;46158;52.850;6.970;2023-07-20T03:50:47;1.90;;;1.50;;
60312;SDS011;46158;52.850;6.970;2023-07-20T03:53:15;1.73;;;1.42;;
60312;SDS011;46158;52.850;6.970;2023-07-20T03:55:50;1.60;;;1.50;;
60312;SDS011;46158;52.850;6.970;2023-07-20T03:58:17;4.43;;;1.63;;
60312;SDS011;46158;52.850;6.970;2023-07-20T04:00:47;2.60;;;1.60;;
60312;SDS011;46158;52.850;6.970;2023-07-20T04:03:15;1.63;;;1.50;;
60312;SDS011;46158;52.850;6.970;2023-07-20T04:05:41;2.40;;;1.42;;
60312;SDS011;46158;52.850;6.970;2023-07-20T04:08:07;1.55;;;1.45;;
60312;SDS011;46158;52.850;6.970;2023-07-20T04:10:33;1.60;;;1.50;;
60312;SDS011;46158;52.850;6.970;2023-07-20T04:12:58;1.70;;;1.60;;
60312;SDS011;46158;52.850;6.970;2023-07-20T04:15:25;2.25;;;1.35;;
60312;SDS011;46158;52.850;6.970;2023-07-20T04:17:50;1.50;;;1.40;;
60312;SDS011;46158;52.850;6.970;2023-07-20T04:20:16;2.55;;;1.60;;
60312;SDS011;46158;52.850;6.970;2023-07-20T04:22:43;3.03;;;1.65;;
60312;SDS011;46158;52.850;6.970;2023-07-20T04:25:08;1.42;;;1.33;;
60312;SDS011;46158;52.850;6.970;2023-07-20T04:27:35;1.52;;;1.42;;
60312;SDS011;46158;52.850;6.970;2023-07-20T04:30:01;1.30;;;1.20;;
60312;SDS011;46158;52.850;6.970;2023-07-20T04:32:28;1.70;;;1.55;;
60312;SDS011;46158;52.850;6.970;2023-07-20T04:34:54;1.70;;;1.60;;
60312;SDS011;46158;52.850;6.970;2023-07-20T04:37:20;1.50;;;1.40;;
60312;SDS011;46158;52.850;6.970;2023-07-20T04:39:45;1.60;;;1.38;;
60312;SDS011;46158;52.850;6.970;2023-07-20T04:42:12;1.70;;;1.60;;
60312;SDS011;46158;52.850;6.970;2023-07-20T04:44:37;1.88;;;1.50;;
60312;SDS011;46158;52.850;6.970;2023-07-20T04:47:03;3.13;;;1.90;;
60312;SDS011;46158;52.850;6.970;2023-07-20T04:49:29;7.05;;;2.10;;
60312;SDS011;46158;52.850;6.970;2023-07-20T04:51:54;5.22;;;1.90;;
60312;SDS011;46158;52.850;6.970;2023-07-20T04:54:20;4.25;;;1.75;;
60312;SDS011;46158;52.850;6.970;2023-07-20T04:56:46;4.43;;;1.60;;
60312;SDS011;46158;52.850;6.970;2023-07-20T04:59:11;5.60;;;1.70;;
60312;SDS011;46158;52.850;6.970;2023-07-20T05:01:37;8.23;;;2.28;;
60312;SDS011;46158;52.850;6.970;2023-07-20T05:04:03;2.95;;;1.88;;
60312;SDS011;46158;52.850;6.970;2023-07-20T05:06:28;4.70;;;2.03;;
60312;SDS011;46158;52.850;6.970;2023-07-20T05:08:54;17.35;;;3.70;;
60312;SDS011;46158;52.850;6.970;2023-07-20T05:11:20;15.90;;;3.00;;
60312;SDS011;46158;52.850;6.970;2023-07-20T05:13:45;11.23;;;2.60;;
60312;SDS011;46158;52.850;6.970;2023-07-20T05:16:11;5.78;;;2.20;;
60312;SDS011;46158;52.850;6.970;2023-07-20T05:18:37;11.20;;;2.40;;
60312;SDS011;46158;52.850;6.970;2023-07-20T05:21:02;12.77;;;2.50;;
60312;SDS011;46158;52.850;6.970;2023-07-20T05:23:28;11.63;;;2.70;;
60312;SDS011;46158;52.850;6.970;2023-07-20T05:25:57;10.70;;;2.70;;
60312;SDS011;46158;52.850;6.970;2023-07-20T05:28:23;14.75;;;3.42;;
60312;SDS011;46158;52.850;6.970;2023-07-20T05:30:50;10.50;;;2.83;;
60312;SDS011;46158;52.850;6.970;2023-07-20T05:33:22;10.68;;;2.67;;
60312;SDS011;46158;52.850;6.970;2023-07-20T05:35:48;13.55;;;2.95;;
60312;SDS011;46158;52.850;6.970;2023-07-20T05:38:14;16.27;;;3.30;;
60312;SDS011;46158;52.850;6.970;2023-07-20T05:40:43;10.50;;;2.67;;
60312;SDS011;46158;52.850;6.970;2023-07-20T05:43:09;9.55;;;2.72;;
60312;SDS011;46158;52.850;6.970;2023-07-20T05:45:35;9.02;;;2.30;;
60312;SDS011;46158;52.850;6.970;2023-07-20T05:48:01;11.57;;;2.53;;
60312;SDS011;46158;52.850;6.970;2023-07-20T05:50:27;11.45;;;2.65;;
60312;SDS011;46158;52.850;6.970;2023-07-20T05:52:53;10.13;;;2.65;;
60312;SDS011;46158;52.850;6.970;2023-07-20T05:55:19;13.63;;;3.15;;
60312;SDS011;46158;52.850;6.970;2023-07-20T05:57:45;14.30;;;3.05;;
60312;SDS011;46158;52.850;6.970;2023-07-20T06:00:11;16.02;;;3.15;;
60312;SDS011;46158;52.850;6.970;2023-07-20T06:02:38;12.52;;;3.08;;
60312;SDS011;46158;52.850;6.970;2023-07-20T06:05:04;10.68;;;2.70;;
60312;SDS011;46158;52.850;6.970;2023-07-20T06:07:34;9.45;;;2.70;;
60312;SDS011;46158;52.850;6.970;2023-07-20T06:10:01;7.72;;;2.22;;
60312;SDS011;46158;52.850;6.970;2023-07-20T06:12:27;4.38;;;2.00;;
60312;SDS011;46158;52.850;6.970;2023-07-20T06:14:53;4.88;;;1.83;;
60312;SDS011;46158;52.850;6.970;2023-07-20T06:17:19;2.50;;;1.77;;
60312;SDS011;46158;52.850;6.970;2023-07-20T06:19:45;3.50;;;1.70;;
60312;SDS011;46158;52.850;6.970;2023-07-20T06:22:10;4.40;;;1.80;;
60312;SDS011;46158;52.850;6.970;2023-07-20T06:24:36;3.20;;;1.73;;
60312;SDS011;46158;52.850;6.970;2023-07-20T06:27:01;2.63;;;1.67;;
60312;SDS011;46158;52.850;6.970;2023-07-20T06:29:28;3.15;;;1.80;;
60312;SDS011;46158;52.850;6.970;2023-07-20T06:31:53;6.05;;;1.90;;
60312;SDS011;46158;52.850;6.970;2023-07-20T06:34:19;4.95;;;1.90;;
60312;SDS011;46158;52.850;6.970;2023-07-20T06:36:45;2.72;;;1.63;;
60312;SDS011;46158;52.850;6.970;2023-07-20T06:39:10;3.53;;;1.65;;
60312;SDS011;46158;52.850;6.970;2023-07-20T06:41:36;2.88;;;1.63;;
60312;SDS011;46158;52.850;6.970;2023-07-20T06:44:01;2.53;;;1.60;;
60312;SDS011;46158;52.850;6.970;2023-07-20T06:46:28;5.55;;;1.95;;
60312;SDS011;46158;52.850;6.970;2023-07-20T06:48:53;4.55;;;1.80;;
60312;SDS011;46158;52.850;6.970;2023-07-20T06:51:19;1.80;;;1.55;;
60312;SDS011;46158;52.850;6.970;2023-07-20T06:53:45;7.22;;;2.00;;
60312;SDS011;46158;52.850;6.970;2023-07-20T06:56:11;3.13;;;1.60;;
60312;SDS011;46158;52.850;6.970;2023-07-20T06:58:37;4.03;;;1.70;;
60312;SDS011;46158;52.850;6.970;2023-07-20T07:01:07;2.17;;;1.60;;
60312;SDS011;46158;52.850;6.970;2023-07-20T07:03:33;3.33;;;1.90;;
60312;SDS011;46158;52.850;6.970;2023-07-20T07:05:59;6.28;;;1.90;;
60312;SDS011;46158;52.850;6.970;2023-07-20T07:08:25;3.03;;;1.80;;
60312;SDS011;46158;52.850;6.970;2023-07-20T07:10:51;5.32;;;1.85;;
60312;SDS011;46158;52.850;6.970;2023-07-20T07:13:17;4.47;;;1.98;;
60312;SDS011;46158;52.850;6.970;2023-07-20T07:15:43;2.85;;;1.67;;
60312;SDS011;46158;52.850;6.970;2023-07-20T07:18:09;3.60;;;1.80;;
60312;SDS011;46158;52.850;6.970;2023-07-20T07:20:35;5.68;;;2.10;;
60312;SDS011;46158;52.850;6.970;2023-07-20T07:23:01;2.70;;;1.65;;
60312;SDS011;46158;52.850;6.970;2023-07-20T07:25:27;4.88;;;1.80;;
60312;SDS011;46158;52.850;6.970;2023-07-20T07:27:53;5.20;;;1.80;;
60312;SDS011;46158;52.850;6.970;2023-07-20T07:30:21;3.13;;;1.90;;
60312;SDS011;46158;52.850;6.970;2023-07-20T07:32:47;1.88;;;1.70;;
60312;SDS011;46158;52.850;6.970;2023-07-20T07:35:12;2.90;;;1.92;;
60312;SDS011;46158;52.850;6.970;2023-07-20T07:37:38;5.78;;;1.80;;
60312;SDS011;46158;52.850;6.970;2023-07-20T07:40:04;3.03;;;1.70;;
60312;SDS011;46158;52.850;6.970;2023-07-20T07:42:31;5.72;;;1.80;;
60312;SDS011;46158;52.850;6.970;2023-07-20T07:44:57;5.60;;;1.80;;
60312;SDS011;46158;52.850;6.970;2023-07-20T07:47:22;1.92;;;1.73;;
60312;SDS011;46158;52.850;6.970;2023-07-20T07:49:48;3.78;;;1.90;;
60312;SDS011;46158;52.850;6.970;2023-07-20T07:52:15;2.00;;;1.70;;
60312;SDS011;46158;52.850;6.970;2023-07-20T07:54:40;3.80;;;1.73;;
60312;SDS011;46158;52.850;6.970;2023-07-20T07:57:08;5.50;;;2.00;;
60312;SDS011;46158;52.850;6.970;2023-07-20T07:59:33;3.03;;;1.75;;
60312;SDS011;46158;52.850;6.970;2023-07-20T08:02:04;6.50;;;2.00;;
60312;SDS011;46158;52.850;6.970;2023-07-20T08:04:30;5.05;;;1.92;;
60312;SDS011;46158;52.850;6.970;2023-07-20T08:06:56;4.05;;;1.92;;
60312;SDS011;46158;52.850;6.970;2023-07-20T08:09:22;5.35;;;1.90;;
60312;SDS011;46158;52.850;6.970;2023-07-20T08:11:48;9.70;;;1.98;;
60312;SDS011;46158;52.850;6.970;2023-07-20T08:14:14;3.83;;;1.60;;
60312;SDS011;46158;52.850;6.970;2023-07-20T08:16:40;5.43;;;2.00;;
60312;SDS011;46158;52.850;6.970;2023-07-20T08:19:06;3.25;;;1.70;;
60312;SDS011;46158;52.850;6.970;2023-07-20T08:21:32;8.65;;;2.10;;
60312;SDS011;46158;52.850;6.970;2023-07-20T08:23:57;3.13;;;1.80;;
60312;SDS011;46158;52.850;6.970;2023-07-20T08:26:23;5.63;;;1.90;;
60312;SDS011;46158;52.850;6.970;2023-07-20T08:28:52;3.45;;;1.70;;
60312;SDS011;46158;52.850;6.970;2023-07-20T08:31:18;3.58;;;1.80;;
60312;SDS011;46158;52.850;6.970;2023-07-20T08:33:44;7.47;;;2.00;;
60312;SDS011;46158;52.850;6.970;2023-07-20T08:36:10;2.53;;;1.75;;
60312;SDS011;46158;52.850;6.970;2023-07-20T08:38:35;6.00;;;1.88;;
60312;SDS011;46158;52.850;6.970;2023-07-20T08:41:01;5.50;;;1.83;;
60312;SDS011;46158;52.850;6.970;2023-07-20T08:43:27;4.47;;;1.85;;
60312;SDS011;46158;52.850;6.970;2023-07-20T08:45:54;5.43;;;2.10;;
60312;SDS011;46158;52.850;6.970;2023-07-20T08:48:23;3.80;;;1.63;;
60312;SDS011;46158;52.850;6.970;2023-07-20T08:50:52;3.42;;;1.70;;
60312;SDS011;46158;52.850;6.970;2023-07-20T08:53:22;2.53;;;1.80;;
60312;SDS011;46158;52.850;6.970;2023-07-20T08:55:49;2.40;;;1.60;;
60312;SDS011;46158;52.850;6.970;2023-07-20T08:58:17;3.95;;;1.77;;
60312;SDS011;46158;52.850;6.970;2023-07-20T09:00:43;3.97;;;1.70;;
60312;SDS011;46158;52.850;6.970;2023-07-20T09:03:10;3.22;;;1.98;;
60312;SDS011;46158;52.850;6.970;2023-07-20T09:05:36;4.15;;;1.80;;
60312;SDS011;46158;52.850;6.970;2023-07-20T09:08:03;3.97;;;1.80;;
60312;SDS011;46158;52.850;6.970;2023-07-20T09:10:30;5.70;;;1.95;;
60312;SDS011;46158;52.850;6.970;2023-07-20T09:12:56;4.50;;;2.03;;
60312;SDS011;46158;52.850;6.970;2023-07-20T09:15:22;4.72;;;1.75;;
60312;SDS011;46158;52.850;6.970;2023-07-20T09:17:51;4.03;;;1.60;;
60312;SDS011;46158;52.850;6.970;2023-07-20T09:20:19;5.30;;;1.92;;
60312;SDS011;46158;52.850;6.970;2023-07-20T09:22:45;3.03;;;1.73;;
60312;SDS011;46158;52.850;6.970;2023-07-20T09:25:15;4.32;;;1.90;;
60312;SDS011;46158;52.850;6.970;2023-07-20T09:27:42;2.28;;;1.70;;
60312;SDS011;46158;52.850;6.970;2023-07-20T09:30:13;1.95;;;1.73;;
60312;SDS011;46158;52.850;6.970;2023-07-20T09:32:44;4.57;;;1.83;;
60312;SDS011;46158;52.850;6.970;2023-07-20T09:35:14;5.07;;;2.00;;
60312;SDS011;46158;52.850;6.970;2023-07-20T09:40:20;5.57;;;1.83;;
60312;SDS011;46158;52.850;6.970;2023-07-20T09:42:46;3.10;;;1.80;;
60312;SDS011;46158;52.850;6.970;2023-07-20T09:45:13;3.58;;;1.80;;
60312;SDS011;46158;52.850;6.970;2023-07-20T09:47:39;3.30;;;1.70;;
60312;SDS011;46158;52.850;6.970;2023-07-20T09:50:06;3.75;;;1.80;;
60312;SDS011;46158;52.850;6.970;2023-07-20T09:55:09;6.47;;;2.13;;
60312;SDS011;46158;52.850;6.970;2023-07-20T09:57:38;4.80;;;1.90;;
60312;SDS011;46158;52.850;6.970;2023-07-20T10:00:05;2.70;;;1.90;;
60312;SDS011;46158;52.850;6.970;2023-07-20T10:02:42;5.25;;;1.80;;
60312;SDS011;46158;52.850;6.970;2023-07-20T10:05:10;6.60;;;1.85;;
60312;SDS011;46158;52.850;6.970;2023-07-20T10:07:40;5.82;;;1.90;;
60312;SDS011;46158;52.850;6.970;2023-07-20T10:10:12;4.97;;;1.90;;
60312;SDS011;46158;52.850;6.970;2023-07-20T10:12:39;4.32;;;1.90;;
60312;SDS011;46158;52.850;6.970;2023-07-20T10:15:10;3.33;;;1.80;;
60312;SDS011;46158;52.850;6.970;2023-07-20T10:17:40;3.63;;;1.80;;
60312;SDS011;46158;52.850;6.970;2023-07-20T10:20:22;5.22;;;2.03;;
60312;SDS011;46158;52.850;6.970;2023-07-20T10:22:48;6.78;;;1.98;;
60312;SDS011;46158;52.850;6.970;2023-07-20T10:25:16;3.88;;;1.70;;
60312;SDS011;46158;52.850;6.970;2023-07-20T10:27:44;3.92;;;1.70;;
60312;SDS011;46158;52.850;6.970;2023-07-20T10:43:24;3.05;;;1.65;;
60312;SDS011;46158;52.850;6.970;2023-07-20T10:45:51;3.88;;;1.80;;
60312;SDS011;46158;52.850;6.970;2023-07-20T10:48:18;2.85;;;1.80;;
60312;SDS011;46158;52.850;6.970;2023-07-20T10:53:35;2.72;;;1.80;;
60312;SDS011;46158;52.850;6.970;2023-07-20T10:56:13;3.78;;;1.75;;
60312;SDS011;46158;52.850;6.970;2023-07-20T10:58:40;3.80;;;1.90;;
60312;SDS011;46158;52.850;6.970;2023-07-20T11:01:07;4.53;;;1.90;;
60312;SDS011;46158;52.850;6.970;2023-07-20T11:03:37;3.08;;;1.63;;
60312;SDS011;46158;52.850;6.970;2023-07-20T11:08:50;2.40;;;1.75;;
60312;SDS011;46158;52.850;6.970;2023-07-20T11:11:28;2.90;;;1.80;;
60312;SDS011;46158;52.850;6.970;2023-07-20T11:13:59;6.38;;;1.88;;
60312;SDS011;46158;52.850;6.970;2023-07-20T11:19:16;6.35;;;2.20;;
60312;SDS011;46158;52.850;6.970;2023-07-20T11:21:46;4.15;;;1.95;;
60312;SDS011;46158;52.850;6.970;2023-07-20T11:24:15;4.47;;;2.00;;
60312;SDS011;46158;52.850;6.970;2023-07-20T11:26:41;2.83;;;1.80;;
60312;SDS011;46158;52.850;6.970;2023-07-20T11:29:08;2.83;;;2.00;;
60312;SDS011;46158;52.850;6.970;2023-07-20T11:31:37;5.25;;;1.77;;
60312;SDS011;46158;52.850;6.970;2023-07-20T11:36:30;2.90;;;1.90;;
60312;SDS011;46158;52.850;6.970;2023-07-20T11:38:56;4.95;;;1.85;;
60312;SDS011;46158;52.850;6.970;2023-07-20T11:41:24;4.68;;;2.10;;
60312;SDS011;46158;52.850;6.970;2023-07-20T11:43:51;6.03;;;1.98;;
60312;SDS011;46158;52.850;6.970;2023-07-20T11:46:17;5.45;;;2.00;;
60312;SDS011;46158;52.850;6.970;2023-07-20T11:48:43;6.13;;;1.90;;
60312;SDS011;46158;52.850;6.970;2023-07-20T11:51:16;2.05;;;1.77;;
60312;SDS011;46158;52.850;6.970;2023-07-20T11:53:45;5.88;;;1.90;;
60312;SDS011;46158;52.850;6.970;2023-07-20T11:56:12;4.00;;;1.90;;
60312;SDS011;46158;52.850;6.970;2023-07-20T11:58:42;8.30;;;2.20;;
60312;SDS011;46158;52.850;6.970;2023-07-20T12:01:14;6.78;;;2.20;;
60312;SDS011;46158;52.850;6.970;2023-07-20T12:03:41;5.97;;;1.90;;
60312;SDS011;46158;52.850;6.970;2023-07-20T12:06:11;4.97;;;1.95;;
60312;SDS011;46158;52.850;6.970;2023-07-20T12:08:41;4.65;;;2.15;;
60312;SDS011;46158;52.850;6.970;2023-07-20T12:11:08;3.55;;;1.98;;
60312;SDS011;46158;52.850;6.970;2023-07-20T12:13:37;4.20;;;1.80;;
60312;SDS011;46158;52.850;6.970;2023-07-20T12:16:15;4.22;;;1.90;;
60312;SDS011;46158;52.850;6.970;2023-07-20T12:18:44;5.40;;;1.80;;
60312;SDS011;46158;52.850;6.970;2023-07-20T12:21:10;1.70;;;1.60;;
60312;SDS011;46158;52.850;6.970;2023-07-20T12:23:37;3.08;;;1.60;;
60312;SDS011;46158;52.850;6.970;2023-07-20T12:26:08;4.18;;;1.70;;
60312;SDS011;46158;52.850;6.970;2023-07-20T12:28:41;3.10;;;1.80;;
60312;SDS011;46158;52.850;6.970;2023-07-20T12:31:10;4.38;;;2.00;;
60312;SDS011;46158;52.850;6.970;2023-07-20T12:33:36;3.17;;;2.00;;
60312;SDS011;46158;52.850;6.970;2023-07-20T12:36:03;3.72;;;1.90;;
60312;SDS011;46158;52.850;6.970;2023-07-20T12:38:29;2.67;;;2.00;;
60312;SDS011;46158;52.850;6.970;2023-07-20T12:41:00;4.53;;;1.90;;
60312;SDS011;46158;52.850;6.970;2023-07-20T12:43:26;4.28;;;1.70;;
60312;SDS011;46158;52.850;6.970;2023-07-20T12:45:52;4.05;;;1.88;;
60312;SDS011;46158;52.850;6.970;2023-07-20T12:48:18;2.63;;;1.73;;
60312;SDS011;46158;52.850;6.970;2023-07-20T12:50:44;3.58;;;1.70;;
60312;SDS011;46158;52.850;6.970;2023-07-20T12:53:10;4.90;;;2.00;;
60312;SDS011;46158;52.850;6.970;2023-07-20T12:55:37;3.95;;;1.92;;
60312;SDS011;46158;52.850;6.970;2023-07-20T12:58:03;7.07;;;1.85;;
60312;SDS011;46158;52.850;6.970;2023-07-20T13:00:29;3.72;;;1.75;;
60312;SDS011;46158;52.850;6.970;2023-07-20T13:02:55;3.53;;;1.95;;
60312;SDS011;46158;52.850;6.970;2023-07-20T13:05:21;3.95;;;1.85;;
60312;SDS011;46158;52.850;6.970;2023-07-20T13:07:46;4.70;;;1.70;;
60312;SDS011;46158;52.850;6.970;2023-07-20T13:10:12;1.90;;;1.70;;
60312;SDS011;46158;52.850;6.970;2023-07-20T13:12:38;4.70;;;2.17;;
60312;SDS011;46158;52.850;6.970;2023-07-20T13:15:05;4.47;;;1.77;;
60312;SDS011;46158;52.850;6.970;2023-07-20T13:17:33;3.40;;;1.80;;
60312;SDS011;46158;52.850;6.970;2023-07-20T13:19:59;3.78;;;2.00;;
60312;SDS011;46158;52.850;6.970;2023-07-20T13:22:25;5.28;;;2.08;;
60312;SDS011;46158;52.850;6.970;2023-07-20T13:24:52;7.35;;;2.30;;
60312;SDS011;46158;52.850;6.970;2023-07-20T13:27:18;4.90;;;2.15;;
60312;SDS011;46158;52.850;6.970;2023-07-20T13:29:45;4.57;;;2.00;;
60312;SDS011;46158;52.850;6.970;2023-07-20T13:32:13;4.38;;;1.83;;
60312;SDS011;46158;52.850;6.970;2023-07-20T13:34:45;3.55;;;2.00;;
60312;SDS011;46158;52.850;6.970;2023-07-20T13:37:12;4.57;;;1.90;;
60312;SDS011;46158;52.850;6.970;2023-07-20T13:39:38;4.13;;;1.77;;
60312;SDS011;46158;52.850;6.970;2023-07-20T13:42:04;4.50;;;1.80;;
60312;SDS011;46158;52.850;6.970;2023-07-20T13:44:30;3.60;;;1.95;;
60312;SDS011;46158;52.850;6.970;2023-07-20T13:46:57;3.55;;;2.00;;
60312;SDS011;46158;52.850;6.970;2023-07-20T13:49:23;2.80;;;1.77;;
60312;SDS011;46158;52.850;6.970;2023-07-20T13:51:48;3.58;;;1.88;;
60312;SDS011;46158;52.850;6.970;2023-07-20T13:54:14;2.97;;;1.70;;
60312;SDS011;46158;52.850;6.970;2023-07-20T13:56:40;2.97;;;1.70;;
60312;SDS011;46158;52.850;6.970;2023-07-20T13:59:06;1.90;;;1.70;;
60312;SDS011;46158;52.850;6.970;2023-07-20T14:01:32;2.53;;;1.77;;
60312;SDS011;46158;52.850;6.970;2023-07-20T14:04:01;2.00;;;1.80;;
60312;SDS011;46158;52.850;6.970;2023-07-20T14:06:31;5.55;;;1.80;;
60312;SDS011;46158;52.850;6.970;2023-07-20T14:11:23;2.08;;;1.75;;
60312;SDS011;46158;52.850;6.970;2023-07-20T14:13:50;3.53;;;2.00;;
60312;SDS011;46158;52.850;6.970;2023-07-20T14:16:18;4.97;;;2.00;;
60312;SDS011;46158;52.850;6.970;2023-07-20T14:18:43;3.53;;;1.73;;
60312;SDS011;46158;52.850;6.970;2023-07-20T14:21:12;3.83;;;1.75;;
60312;SDS011;46158;52.850;6.970;2023-07-20T14:23:38;7.50;;;2.20;;
60312;SDS011;46158;52.850;6.970;2023-07-20T14:26:05;7.85;;;2.38;;
60312;SDS011;46158;52.850;6.970;2023-07-20T14:28:31;7.43;;;2.70;;
60312;SDS011;46158;52.850;6.970;2023-07-20T14:30:57;7.60;;;2.60;;
60312;SDS011;46158;52.850;6.970;2023-07-20T14:33:25;11.52;;;2.58;;
60312;SDS011;46158;52.850;6.970;2023-07-20T14:35:51;8.50;;;2.50;;
60312;SDS011;46158;52.850;6.970;2023-07-20T14:38:17;9.38;;;2.58;;
60312;SDS011;46158;52.850;6.970;2023-07-20T14:40:42;6.22;;;2.70;;
60312;SDS011;46158;52.850;6.970;2023-07-20T14:43:08;6.82;;;2.50;;
60312;SDS011;46158;52.850;6.970;2023-07-20T14:45:34;7.50;;;2.55;;
60312;SDS011;46158;52.850;6.970;2023-07-20T14:48:02;6.43;;;2.30;;
60312;SDS011;46158;52.850;6.970;2023-07-20T14:50:28;5.63;;;2.60;;
60312;SDS011;46158;52.850;6.970;2023-07-20T14:52:54;3.47;;;2.25;;
60312;SDS011;46158;52.850;6.970;2023-07-20T14:55:20;7.28;;;2.47;;
60312;SDS011;46158;52.850;6.970;2023-07-20T14:57:45;5.25;;;2.13;;
60312;SDS011;46158;52.850;6.970;2023-07-20T15:00:13;4.63;;;2.50;;
60312;SDS011;46158;52.850;6.970;2023-07-20T15:02:40;6.03;;;2.35;;
60312;SDS011;46158;52.850;6.970;2023-07-20T15:05:06;7.63;;;2.20;;
60312;SDS011;46158;52.850;6.970;2023-07-20T15:07:33;6.93;;;2.50;;
60312;SDS011;46158;52.850;6.970;2023-07-20T15:10:00;5.03;;;2.30;;
60312;SDS011;46158;52.850;6.970;2023-07-20T15:12:25;4.93;;;2.20;;
60312;SDS011;46158;52.850;6.970;2023-07-20T15:15:05;7.15;;;2.50;;
60312;SDS011;46158;52.850;6.970;2023-07-20T15:19:58;3.90;;;2.00;;
60312;SDS011;46158;52.850;6.970;2023-07-20T15:22:24;5.65;;;2.50;;
60312;SDS011;46158;52.850;6.970;2023-07-20T15:24:50;6.30;;;2.30;;
60312;SDS011;46158;52.850;6.970;2023-07-20T15:27:16;5.90;;;2.40;;
60312;SDS011;46158;52.850;6.970;2023-07-20T15:29:42;7.30;;;2.50;;